Terminal Aerodrome Forecast
Issued by NWS

Home | Current Version | Previous Version | Text Only | Print | Product List | Glossary On
Versions: 1 2 3 4 5 6 7 8 9 10 11 12
000
FTUS46 KSEW 021120
TAFOLM
TAF
KOLM 021120Z 0212/0312 00000KT P6SM SCT200
     FM021900 02006KT P6SM BKN150
     FM030400 18004KT P6SM BKN150=

USA.gov is the U.S. government's official web portal to all federal, state and local government web resources and services.